KLUD

Decatur Municipal Airport

Decatur, Texas, USA
METAR KLUD 191315Z AUTO 00000KT 4SM BR OVC006 11/10 A2988 RMK AO2 T01100100
Observed Flight Rules
Dec-19 @ 13:15 UTC (25 minutes ago) Instrument Flight Rules
Visibility Clouds Conditions
4 miles
  • Overcast at 600' AGL
  • Mist
Temperatures Readings
Current 11°C / 52°F
Dewpoint 10°C / 50°F
Humidity 94%
Altimeter 29.88" Hg
Pressure 1012 hPa
Elevation 319
METAR KLUD 191315Z AUTO 00000KT 4SM BR OVC006 11/10 A2988 RMK AO2 T01100100
Observed Flight Rules
Dec-19 @ 13:15 UTC
(25 minutes ago)
IFR
Clouds
  • Overcast at 600' AGL
Conditions
  • Mist
Temperature Dewpoint
11°C / 52°F 10°C / 50°F
Humidity Altimeter Pressure
94% 29.88" Hg 1012 hPa